CYUB

Details ICAO CYUB (YUB)
Name TUKTOYAKTUK
Region Canada
Timezone America/Yellowknife (UTC-6.0)
Plans Departing 4
Arriving 14
Stats Elevation 15 ft / 5 m (AMSL)
Location 69.433334° -133.026390°
Runways 1
Magnetic Variation 21.564° E
Sunrise Unknown / Unknown
Sunset Unknown / Unknown
Advertisement - Login to hide

Runways

ID Width Length Bearing (true) Bearing (mag) Surface Threshold Offset Overrun Length
09 150 ft / 46 m 5,012 ft / 1,528 m 124.50° 102.94° Gravel 200 ft / 61 m 0 ft / 0 m
27 150 ft / 46 m 5,012 ft / 1,528 m 304.53° 282.97° Gravel 200 ft / 61 m 0 ft / 0 m

Map

Weather


0- 5 10 15 20 25 30 35+ Temperature / ° C

Clouds and Precipitation
Forecast for 2018-05-24 00:00 UTC. Updated 2 hours ago

Ground ~20,000 ft ~40,000 ft Winds

METAR

CYUB 240000Z 05015KT 8SM -SN BKN009 OVC019 M02/M04 A2995 RMK SC6SC2 SLP142

TAF

TAF CYUB 240038Z 2401/2405 05015KT P6SM OVC010 TEMPO 2401/2405 5SM -SN OVC006 RMK NXT FCST WILL BE ISSUED AT 241445Z

Frequencies

Unicom 122.10 MHz MANDATORY FREQ
Warning: Do not use this data for real-world aviation or navigation. No guarantee of current accuracy is given.